createdAt,value
2018-03-31T00:02:08.419Z,19.20
2018-03-31T00:04:37.117Z,14.03
2018-03-31T00:07:06.123Z,14.53
2018-03-31T00:09:34.787Z,15.47
2018-03-31T00:12:03.586Z,18.17
2018-03-31T00:14:33.114Z,14.20
2018-03-31T00:17:02.892Z,15.93
2018-03-31T00:19:31.878Z,13.47
2018-03-31T00:22:01.182Z,16.60
2018-03-31T00:24:30.671Z,16.60
2018-03-31T00:26:59.672Z,15.03
2018-03-31T00:29:28.399Z,15.23
2018-03-31T00:31:57.176Z,15.37
2018-03-31T00:34:26.906Z,14.70
2018-03-31T00:36:55.704Z,14.60
2018-03-31T00:39:24.685Z,13.37
2018-03-31T00:41:53.449Z,14.43
2018-03-31T00:44:22.585Z,13.27
2018-03-31T00:46:51.334Z,12.23
2018-03-31T00:49:20.082Z,13.63
2018-03-31T00:51:48.854Z,15.13
2018-03-31T00:54:18.056Z,16.87
2018-03-31T00:56:46.866Z,13.00
2018-03-31T00:59:15.590Z,13.83
2018-03-31T01:01:44.338Z,14.17
2018-03-31T01:04:14.105Z,15.10
2018-03-31T01:06:42.859Z,13.40
2018-03-31T01:09:11.831Z,13.20
2018-03-31T01:11:41.678Z,11.10
2018-03-31T01:14:10.442Z,13.70
2018-03-31T01:16:39.145Z,14.07
2018-03-31T01:19:08.907Z,12.27
2018-03-31T01:21:37.728Z,12.57
2018-03-31T01:24:06.470Z,12.93
2018-03-31T01:26:36.387Z,13.10
2018-03-31T01:29:05.914Z,14.53
2018-03-31T01:31:35.541Z,14.77
2018-03-31T01:34:04.734Z,11.90
2018-03-31T01:36:33.881Z,12.63
2018-03-31T01:39:02.729Z,13.47
2018-03-31T01:41:31.442Z,13.20
2018-03-31T01:44:00.534Z,11.10
2018-03-31T01:46:29.316Z,13.47
2018-03-31T01:48:58.067Z,14.80
2018-03-31T01:51:26.794Z,12.97
2018-03-31T01:53:56.651Z,12.00
2018-03-31T01:56:25.444Z,13.10
2018-03-31T01:58:54.973Z,11.43
2018-03-31T02:01:23.735Z,13.33
2018-03-31T02:03:52.893Z,12.17
2018-03-31T02:06:22.442Z,13.03
2018-03-31T02:08:51.344Z,13.17
2018-03-31T02:11:20.502Z,11.00
2018-03-31T02:13:49.226Z,15.13
2018-03-31T02:16:17.969Z,11.50
2018-03-31T02:18:46.756Z,12.97
2018-03-31T02:21:15.523Z,13.07
2018-03-31T02:23:44.576Z,12.23
2018-03-31T02:26:13.479Z,15.53
2018-03-31T02:28:42.333Z,11.93
2018-03-31T02:31:11.944Z,12.70
2018-03-31T02:33:41.082Z,12.77
2018-03-31T02:36:09.889Z,12.47
2018-03-31T02:38:38.712Z,13.33
2018-03-31T02:41:07.703Z,14.07
2018-03-31T02:43:36.407Z,11.33
2018-03-31T02:46:05.932Z,11.80
2018-03-31T02:48:35.799Z,11.47
2018-03-31T02:51:04.492Z,13.67
2018-03-31T02:53:33.251Z,13.90
2018-03-31T02:56:02.172Z,15.60
2018-03-31T02:58:31.164Z,12.73
2018-03-31T03:00:59.891Z,12.53
2018-03-31T03:03:28.551Z,14.77
2018-03-31T03:05:57.229Z,12.97
2018-03-31T03:08:26.358Z,14.23
2018-03-31T03:10:55.861Z,12.80
2018-03-31T03:13:24.586Z,14.50
2018-03-31T03:15:53.858Z,14.90
2018-03-31T03:18:22.615Z,14.07
2018-03-31T03:20:51.091Z,15.80
2018-03-31T03:23:19.550Z,13.07
2018-03-31T03:25:48.030Z,14.27
2018-03-31T03:28:17.565Z,12.77
2018-03-31T03:30:46.332Z,11.37
2018-03-31T03:33:15.554Z,14.30
2018-03-31T03:35:44.008Z,12.37
2018-03-31T03:38:12.774Z,15.03
2018-03-31T03:40:42.170Z,10.80
2018-03-31T03:43:11.708Z,10.87
2018-03-31T03:45:40.443Z,13.60
2018-03-31T03:48:09.009Z,13.60
2018-03-31T03:50:37.588Z,13.67
2018-03-31T03:53:06.395Z,14.70
2018-03-31T03:55:35.650Z,13.73
2018-03-31T03:58:04.146Z,15.50
2018-03-31T04:00:32.626Z,15.63
2018-03-31T04:03:01.072Z,14.73
2018-03-31T04:05:30.634Z,14.40
2018-03-31T04:07:59.215Z,11.13
2018-03-31T04:10:27.787Z,12.90
2018-03-31T04:12:56.310Z,14.20
2018-03-31T04:15:25.178Z,13.77
2018-03-31T04:17:53.647Z,16.63
2018-03-31T04:20:22.115Z,13.37
2018-03-31T04:22:50.585Z,14.30
2018-03-31T04:25:19.680Z,12.63
2018-03-31T04:27:48.223Z,13.23
2018-03-31T04:30:17.464Z,14.13
2018-03-31T04:32:46.187Z,14.60
2018-03-31T04:35:14.685Z,12.60
2018-03-31T04:37:43.134Z,12.67
2018-03-31T04:40:12.261Z,14.17
2018-03-31T04:42:41.518Z,13.90
2018-03-31T04:45:10.770Z,16.03
2018-03-31T04:47:40.639Z,14.57
2018-03-31T04:50:09.154Z,13.33
2018-03-31T04:52:38.943Z,15.73
2018-03-31T04:55:07.668Z,15.03
2018-03-31T04:57:36.490Z,15.70
2018-03-31T05:00:05.193Z,13.90
2018-03-31T05:02:33.692Z,13.07
2018-03-31T05:05:02.302Z,15.60
2018-03-31T05:07:31.955Z,15.53
2018-03-31T05:10:00.515Z,13.10
2018-03-31T05:12:29.227Z,19.10
2018-03-31T05:14:57.958Z,14.20
2018-03-31T05:17:27.220Z,13.97
2018-03-31T05:19:55.671Z,14.97
2018-03-31T05:22:24.158Z,14.73
2018-03-31T05:24:53.991Z,15.43
2018-03-31T05:27:22.560Z,14.50
2018-03-31T05:29:51.156Z,15.53
2018-03-31T05:32:20.312Z,16.37
2018-03-31T05:34:49.330Z,13.03
2018-03-31T05:37:17.915Z,13.20
2018-03-31T05:39:46.409Z,15.20
2018-03-31T05:42:14.969Z,13.63
2018-03-31T05:44:44.447Z,15.10
2018-03-31T05:47:13.050Z,14.73
2018-03-31T05:49:41.589Z,14.37
2018-03-31T05:52:10.235Z,15.00
2018-03-31T05:54:39.206Z,15.33
2018-03-31T05:57:07.686Z,13.63
2018-03-31T05:59:36.128Z,14.40
2018-03-31T06:02:05.683Z,15.40
2018-03-31T06:04:34.498Z,15.57
2018-03-31T06:07:02.982Z,15.93
2018-03-31T06:09:31.442Z,14.20
2018-03-31T06:12:00.275Z,14.03
2018-03-31T06:14:28.753Z,13.70
2018-03-31T06:16:57.291Z,14.77
2018-03-31T06:19:25.784Z,13.70
2018-03-31T06:21:54.774Z,14.43
2018-03-31T06:24:23.533Z,14.20
2018-03-31T06:26:52.065Z,16.20
2018-03-31T06:29:20.992Z,15.03
2018-03-31T06:31:49.739Z,14.37
2018-03-31T06:34:18.983Z,16.50
2018-03-31T06:36:47.426Z,13.23
2018-03-31T06:39:15.866Z,17.83
2018-03-31T06:41:44.821Z,15.07
2018-03-31T06:44:13.285Z,15.47
2018-03-31T06:46:42.562Z,17.70
2018-03-31T06:49:11.343Z,15.20
2018-03-31T06:51:39.794Z,13.00
2018-03-31T06:54:08.259Z,14.13
2018-03-31T06:56:37.090Z,17.77
2018-03-31T06:59:06.142Z,14.37
2018-03-31T07:01:34.765Z,13.80
2018-03-31T07:04:04.542Z,14.47
2018-03-31T07:06:33.081Z,17.40
2018-03-31T07:09:01.531Z,14.97
2018-03-31T07:11:30.246Z,13.93
2018-03-31T07:13:58.758Z,16.57
2018-03-31T07:16:27.299Z,14.90
2018-03-31T07:18:56.028Z,18.30
2018-03-31T07:21:24.505Z,15.23
2018-03-31T07:23:53.031Z,15.73
2018-03-31T07:26:21.839Z,14.23
2018-03-31T07:28:51.351Z,13.33
2018-03-31T07:31:19.939Z,15.90
2018-03-31T07:33:49.150Z,19.60
2018-03-31T07:36:18.711Z,13.67
2018-03-31T07:38:47.162Z,13.37
2018-03-31T07:41:15.633Z,13.93
2018-03-31T07:43:44.399Z,15.07
2018-03-31T07:46:13.648Z,12.87
2018-03-31T07:48:42.154Z,12.20
2018-03-31T07:51:10.862Z,11.73
2018-03-31T07:53:39.348Z,12.73
2018-03-31T07:56:07.798Z,14.33
2018-03-31T07:58:36.644Z,11.93
2018-03-31T08:01:05.120Z,12.90
2018-03-31T08:03:33.717Z,13.00
2018-03-31T08:06:02.527Z,13.13
2018-03-31T08:08:31.243Z,13.90
2018-03-31T08:11:00.446Z,15.73
2018-03-31T08:13:29.948Z,15.10
2018-03-31T08:15:59.158Z,12.03
2018-03-31T08:18:27.606Z,12.73
2018-03-31T08:20:56.452Z,12.63
2018-03-31T08:23:24.906Z,13.37
2018-03-31T08:25:53.745Z,13.63
2018-03-31T08:28:22.450Z,12.73
2018-03-31T08:30:50.914Z,13.17
2018-03-31T08:33:20.120Z,14.60
2018-03-31T08:35:48.871Z,11.13
2018-03-31T08:38:17.331Z,12.40
2018-03-31T08:40:45.815Z,14.00
2018-03-31T08:43:14.620Z,12.13
2018-03-31T08:45:43.146Z,14.33
2018-03-31T08:48:11.579Z,14.33
2018-03-31T08:50:40.547Z,12.50
2018-03-31T08:53:09.053Z,12.73
2018-03-31T08:55:38.544Z,12.80
2018-03-31T08:58:07.295Z,14.60
2018-03-31T09:00:35.802Z,15.20
2018-03-31T09:03:04.263Z,14.63
2018-03-31T09:05:33.851Z,12.50
2018-03-31T09:08:02.353Z,12.50
2018-03-31T09:10:31.790Z,16.60
2018-03-31T09:13:00.487Z,13.73
2018-03-31T09:15:28.978Z,12.13
2018-03-31T09:17:57.463Z,13.70
2018-03-31T09:20:26.282Z,14.63
2018-03-31T09:22:54.974Z,13.97
2018-03-31T09:25:24.172Z,14.33
2018-03-31T09:27:53.714Z,13.37
2018-03-31T09:30:22.179Z,15.07
2018-03-31T09:32:50.899Z,15.20
2018-03-31T09:35:19.819Z,13.20
2018-03-31T09:37:48.291Z,14.57
2018-03-31T09:40:16.822Z,13.83
2018-03-31T09:42:46.348Z,13.07
2018-03-31T09:45:14.916Z,16.23
2018-03-31T09:47:43.453Z,15.43
2018-03-31T09:50:12.765Z,37.33
2018-03-31T09:52:41.995Z,14.03
2018-03-31T09:55:10.508Z,15.13
2018-03-31T09:57:39.496Z,18.10
2018-03-31T10:00:08.259Z,18.53
2018-03-31T10:02:36.706Z,15.10
2018-03-31T10:05:05.460Z,19.67
2018-03-31T10:07:34.762Z,16.87
2018-03-31T10:10:04.290Z,15.93
2018-03-31T10:12:34.117Z,18.00
2018-03-31T10:15:02.679Z,17.63
2018-03-31T10:17:31.200Z,22.00
2018-03-31T10:19:59.998Z,19.93
2018-03-31T10:22:28.494Z,21.37
2018-03-31T10:24:57.104Z,19.23
2018-03-31T10:27:26.239Z,19.40
2018-03-31T10:29:54.790Z,19.60
2018-03-31T10:32:24.116Z,19.07
2018-03-31T10:34:52.958Z,20.30
2018-03-31T10:37:21.870Z,17.23
2018-03-31T10:39:52.074Z,17.17
2018-03-31T10:42:20.806Z,16.00
2018-03-31T10:44:49.264Z,20.23
2018-03-31T10:47:18.516Z,21.13
2018-03-31T10:49:47.245Z,25.83
2018-03-31T10:52:16.574Z,30.70
2018-03-31T10:54:45.215Z,360.50
2018-03-31T10:57:14.866Z,170.30
2018-03-31T10:59:44.238Z,88.57
2018-03-31T11:02:13.457Z,241.70
2018-03-31T11:04:42.946Z,238.43
2018-03-31T11:07:12.213Z,77.20
2018-03-31T11:09:40.698Z,59.00
2018-03-31T11:12:09.707Z,60.73
2018-03-31T11:14:38.940Z,57.80
2018-03-31T11:17:07.434Z,32.00
2018-03-31T11:19:36.839Z,27.17
2018-03-31T11:22:06.129Z,24.13
2018-03-31T11:24:34.668Z,36.30
2018-03-31T11:27:03.419Z,23.07
2018-03-31T11:29:31.919Z,307.70
2018-03-31T11:32:00.490Z,173.80
2018-03-31T11:34:29.230Z,166.17
2018-03-31T11:36:57.867Z,32.70
2018-03-31T11:39:26.367Z,27.10
2018-03-31T11:41:55.215Z,23.70
2018-03-31T11:44:24.905Z,68.07
2018-03-31T11:46:53.399Z,90.53
2018-03-31T11:49:23.174Z,42.67
2018-03-31T11:51:52.400Z,39.53
2018-03-31T11:54:20.832Z,37.00
2018-03-31T11:56:49.579Z,36.73
2018-03-31T11:59:18.119Z,27.50
2018-03-31T12:01:46.654Z,39.53
2018-03-31T12:04:15.369Z,37.90
2018-03-31T12:06:44.091Z,47.77
2018-03-31T12:09:12.591Z,31.13
2018-03-31T12:11:41.099Z,30.63
2018-03-31T12:14:10.240Z,36.03
2018-03-31T12:16:38.706Z,30.40
2018-03-31T12:19:07.966Z,26.90
2018-03-31T12:21:37.820Z,30.87
2018-03-31T12:24:06.320Z,26.97
2018-03-31T12:26:35.827Z,26.53
2018-03-31T12:29:04.558Z,27.57
2018-03-31T12:31:33.064Z,26.77
2018-03-31T12:34:01.942Z,26.50
2018-03-31T12:36:30.688Z,23.70
2018-03-31T12:38:59.178Z,25.47
2018-03-31T12:41:28.108Z,23.33
2018-03-31T12:43:57.622Z,21.87
2018-03-31T12:46:26.856Z,23.33
2018-03-31T12:48:55.355Z,28.20
2018-03-31T12:51:25.922Z,22.30
2018-03-31T12:53:55.227Z,21.10
2018-03-31T12:56:24.558Z,22.53
2018-03-31T12:58:53.343Z,21.63
2018-03-31T13:01:22.059Z,23.53
2018-03-31T13:03:50.523Z,20.83
2018-03-31T13:06:20.195Z,22.50
2018-03-31T13:08:49.449Z,22.40
2018-03-31T13:11:17.953Z,23.13
2018-03-31T13:13:47.497Z,22.37
2018-03-31T13:16:16.097Z,25.93
2018-03-31T13:18:44.875Z,22.47
2018-03-31T13:21:13.912Z,28.33
2018-03-31T13:23:42.358Z,22.70
2018-03-31T13:26:10.869Z,32.17
2018-03-31T13:28:39.719Z,23.30
2018-03-31T13:31:08.211Z,26.17
2018-03-31T13:33:36.698Z,21.77
2018-03-31T13:36:06.915Z,22.20
2018-03-31T13:38:35.689Z,24.10
2018-03-31T13:41:04.472Z,24.23
2018-03-31T13:43:33.294Z,24.83
2018-03-31T13:46:01.847Z,26.57
2018-03-31T13:48:30.820Z,26.37
2018-03-31T13:51:00.647Z,24.07
2018-03-31T13:53:29.131Z,25.57
2018-03-31T13:55:57.932Z,27.40
2018-03-31T13:58:26.981Z,26.07
2018-03-31T14:00:56.290Z,33.83
2018-03-31T14:03:24.934Z,32.67
2018-03-31T14:05:54.447Z,24.07
2018-03-31T14:08:22.928Z,20.60
2018-03-31T14:10:52.235Z,21.70
2018-03-31T14:13:21.096Z,17.27
2018-03-31T14:15:49.662Z,24.33
2018-03-31T14:18:18.711Z,19.47
2018-03-31T14:20:47.629Z,20.63
2018-03-31T14:23:16.998Z,21.93
2018-03-31T14:25:46.750Z,22.60
2018-03-31T14:28:16.632Z,20.47
2018-03-31T14:30:45.873Z,20.90
2018-03-31T14:33:14.575Z,23.23
2018-03-31T14:35:44.372Z,21.57
2018-03-31T14:38:13.343Z,23.07
2018-03-31T14:40:42.471Z,27.83
2018-03-31T14:43:11.404Z,29.60
2018-03-31T14:45:40.647Z,24.77
2018-03-31T14:48:09.220Z,22.40
2018-03-31T14:50:38.786Z,23.47
2018-03-31T14:53:08.028Z,23.80
2018-03-31T14:55:36.731Z,29.83
2018-03-31T14:58:05.514Z,31.40
2018-03-31T15:00:34.051Z,26.30
2018-03-31T15:03:04.532Z,31.43
2018-03-31T15:05:34.336Z,34.93
2018-03-31T15:08:03.726Z,31.73
2018-03-31T15:10:32.244Z,28.10
2018-03-31T15:13:01.051Z,29.70
2018-03-31T15:15:30.307Z,29.70
2018-03-31T15:17:58.802Z,23.00
2018-03-31T15:20:28.546Z,24.90
2018-03-31T15:22:58.050Z,25.83
2018-03-31T15:25:26.545Z,24.73
2018-03-31T15:27:55.262Z,21.07
2018-03-31T15:30:24.066Z,22.10
2018-03-31T15:32:54.066Z,20.63
2018-03-31T15:35:22.578Z,20.33
2018-03-31T15:37:53.608Z,25.20
2018-03-31T15:40:22.288Z,24.97
2018-03-31T15:42:50.778Z,24.97
2018-03-31T15:45:19.291Z,24.00
2018-03-31T15:47:48.055Z,26.73
2018-03-31T15:50:16.506Z,26.13
2018-03-31T15:52:45.096Z,27.53
2018-03-31T15:55:13.984Z,29.17
2018-03-31T15:57:42.544Z,33.07
2018-03-31T16:00:11.171Z,28.07
2018-03-31T16:02:40.050Z,31.03
2018-03-31T16:05:08.551Z,32.87
2018-03-31T16:07:37.194Z,31.33
2018-03-31T16:10:05.965Z,33.27
2018-03-31T16:12:34.495Z,33.67
2018-03-31T16:15:03.096Z,36.63
2018-03-31T16:17:32.730Z,40.60
2018-03-31T16:20:01.383Z,40.37
2018-03-31T16:22:30.684Z,41.97
2018-03-31T16:25:00.188Z,40.63
2018-03-31T16:27:29.786Z,42.70
2018-03-31T16:29:59.120Z,40.17
2018-03-31T16:32:27.918Z,43.77
2018-03-31T16:34:56.541Z,47.73
2018-03-31T16:37:25.050Z,50.67
2018-03-31T16:39:53.965Z,51.80
2018-03-31T16:42:22.439Z,52.27
2018-03-31T16:44:51.685Z,60.80
2018-03-31T16:47:20.405Z,62.10
2018-03-31T16:49:49.680Z,64.40
2018-03-31T16:52:20.113Z,58.43
2018-03-31T16:54:48.988Z,54.27
2018-03-31T16:57:17.514Z,56.90
2018-03-31T16:59:46.095Z,65.37
2018-03-31T17:02:15.709Z,67.90
2018-03-31T17:04:44.224Z,77.00
2018-03-31T17:07:12.785Z,83.37
2018-03-31T17:09:41.565Z,75.57
2018-03-31T17:12:10.055Z,64.50
2018-03-31T17:14:38.759Z,52.43
2018-03-31T17:17:07.690Z,47.03
2018-03-31T17:19:36.956Z,47.27
2018-03-31T17:22:05.426Z,51.10
2018-03-31T17:24:34.217Z,51.17
2018-03-31T17:27:02.975Z,54.37
2018-03-31T17:29:32.213Z,61.80
2018-03-31T17:32:00.918Z,66.73
2018-03-31T17:34:29.495Z,69.33
2018-03-31T17:36:58.443Z,99.47
2018-03-31T17:39:27.309Z,127.90
2018-03-31T17:41:56.554Z,140.37
2018-03-31T17:44:25.266Z,117.83
2018-03-31T17:46:53.799Z,98.20
2018-03-31T17:49:23.314Z,78.10
2018-03-31T17:51:52.056Z,62.90
2018-03-31T17:54:20.550Z,61.23
2018-03-31T17:56:50.067Z,62.07
2018-03-31T17:59:18.546Z,72.57
2018-03-31T18:01:47.112Z,81.23
2018-03-31T18:04:16.194Z,84.00
2018-03-31T18:06:44.895Z,95.67
2018-03-31T18:09:13.411Z,123.67
2018-03-31T18:11:43.230Z,138.20
2018-03-31T18:14:11.724Z,131.37
2018-03-31T18:16:40.342Z,118.70
2018-03-31T18:19:10.019Z,100.10
2018-03-31T18:21:38.489Z,102.30
2018-03-31T18:24:07.031Z,113.07
2018-03-31T18:26:36.094Z,115.17
2018-03-31T18:29:04.575Z,117.43
2018-03-31T18:31:33.481Z,117.53
2018-03-31T18:34:03.159Z,141.63
2018-03-31T18:36:32.100Z,150.63
2018-03-31T18:39:00.703Z,175.50
2018-03-31T18:41:29.532Z,170.93
2018-03-31T18:43:58.222Z,179.03
2018-03-31T18:46:27.564Z,192.00
2018-03-31T18:48:56.462Z,213.30
2018-03-31T18:51:25.033Z,223.93
2018-03-31T18:53:53.632Z,240.77
2018-03-31T18:56:22.398Z,256.77
2018-03-31T18:58:50.854Z,230.60
2018-03-31T19:01:20.241Z,205.57
2018-03-31T19:03:49.793Z,197.03
2018-03-31T19:06:18.599Z,183.63
2018-03-31T19:08:50.004Z,186.50
2018-03-31T19:11:19.526Z,152.67
2018-03-31T19:13:48.036Z,150.50
2018-03-31T19:16:16.774Z,162.53
2018-03-31T19:18:45.570Z,146.60
2018-03-31T19:21:14.846Z,132.73
2018-03-31T19:23:44.372Z,116.33
2018-03-31T19:26:13.194Z,125.30
2018-03-31T19:28:42.074Z,122.73
2018-03-31T19:31:10.535Z,165.23
2018-03-31T19:33:39.045Z,155.83
2018-03-31T19:36:12.290Z,161.47
2018-03-31T19:38:40.830Z,159.43
2018-03-31T19:41:09.306Z,198.63
2018-03-31T19:43:38.639Z,200.00
2018-03-31T19:46:07.198Z,263.47
2018-03-31T19:48:35.998Z,219.33
2018-03-31T19:51:04.457Z,210.60
2018-03-31T19:53:32.971Z,170.43
2018-03-31T19:56:02.414Z,175.57
2018-03-31T19:58:30.910Z,169.77
2018-03-31T20:01:00.621Z,183.73
2018-03-31T20:03:29.528Z,208.13
2018-03-31T20:05:58.035Z,244.33
2018-03-31T20:08:27.934Z,178.90
2018-03-31T20:10:57.670Z,161.20
2018-03-31T20:13:27.306Z,144.07
2018-03-31T20:15:56.916Z,133.57
2018-03-31T20:18:25.703Z,148.90
2018-03-31T20:20:54.264Z,153.77
2018-03-31T20:23:23.511Z,156.63
2018-03-31T20:25:52.293Z,154.97
2018-03-31T20:28:22.950Z,172.37
2018-03-31T20:30:51.553Z,162.47
2018-03-31T20:33:21.139Z,136.37
2018-03-31T20:35:49.684Z,141.40
2018-03-31T20:38:18.977Z,147.23
2018-03-31T20:40:48.616Z,141.33
2018-03-31T20:43:17.921Z,131.50
2018-03-31T20:45:46.456Z,109.73
2018-03-31T20:48:15.259Z,92.30
2018-03-31T20:50:43.774Z,87.27
2018-03-31T20:53:12.260Z,93.93
2018-03-31T20:55:41.013Z,97.17
2018-03-31T20:58:10.101Z,101.07
2018-03-31T21:00:38.657Z,123.03
2018-03-31T21:03:08.174Z,141.33
2018-03-31T21:05:37.517Z,152.33
2018-03-31T21:08:06.043Z,157.27
2018-03-31T21:10:35.964Z,134.93
2018-03-31T21:13:04.475Z,130.47
2018-03-31T21:15:32.972Z,147.93
2018-03-31T21:18:01.836Z,103.20
2018-03-31T21:20:31.169Z,109.60
2018-03-31T21:22:59.719Z,120.50
2018-03-31T21:25:28.450Z,106.83
2018-03-31T21:27:56.885Z,114.67
2018-03-31T21:30:25.364Z,117.87
2018-03-31T21:32:54.447Z,111.50
2018-03-31T21:35:22.895Z,111.23
2018-03-31T21:37:51.368Z,81.67
2018-03-31T21:40:20.091Z,73.43
2018-03-31T21:42:49.314Z,60.53
2018-03-31T21:45:17.832Z,57.43
2018-03-31T21:47:46.575Z,58.80
2018-03-31T21:50:15.438Z,58.07
2018-03-31T21:52:45.151Z,65.40
2018-03-31T21:55:14.519Z,73.13
2018-03-31T21:57:43.330Z,102.90
2018-03-31T22:00:11.955Z,86.93
2018-03-31T22:02:40.736Z,90.53
2018-03-31T22:05:10.235Z,74.50
2018-03-31T22:07:38.742Z,65.13
2018-03-31T22:10:07.472Z,60.47
2018-03-31T22:12:36.942Z,77.10
2018-03-31T22:15:10.526Z,64.17
2018-03-31T22:17:39.189Z,76.83
2018-03-31T22:20:07.978Z,81.13
2018-03-31T22:22:36.480Z,132.80
2018-03-31T22:25:04.943Z,159.30
2018-03-31T22:27:33.691Z,139.10
2018-03-31T22:30:02.119Z,111.90
2018-03-31T22:32:30.584Z,81.27
2018-03-31T22:34:59.430Z,62.63
2018-03-31T22:37:28.118Z,58.13
2018-03-31T22:39:57.386Z,61.30
2018-03-31T22:42:26.920Z,66.47
2018-03-31T22:44:56.169Z,65.80
2018-03-31T22:47:24.625Z,59.60
2018-03-31T22:49:54.194Z,68.30
2018-03-31T22:52:22.798Z,69.90
2018-03-31T22:54:52.063Z,75.53
2018-03-31T22:57:21.074Z,75.33
2018-03-31T22:59:49.730Z,64.50
2018-03-31T23:02:19.267Z,60.10
2018-03-31T23:04:48.482Z,66.73
2018-03-31T23:07:18.097Z,57.87
2018-03-31T23:09:46.816Z,63.60
2018-03-31T23:12:15.906Z,52.50
2018-03-31T23:14:44.710Z,56.17
2018-03-31T23:17:14.206Z,56.83
2018-03-31T23:19:44.430Z,53.40
2018-03-31T23:22:13.975Z,49.27
2018-03-31T23:24:43.267Z,49.27
2018-03-31T23:27:12.637Z,49.83
2018-03-31T23:29:41.407Z,56.93
2018-03-31T23:32:10.208Z,54.27
2018-03-31T23:34:38.948Z,51.90
2018-03-31T23:37:08.184Z,59.87
2018-03-31T23:39:36.657Z,55.30
2018-03-31T23:42:05.241Z,53.63
2018-03-31T23:44:34.003Z,54.80
2018-03-31T23:47:02.817Z,57.17
2018-03-31T23:49:31.396Z,55.80
2018-03-31T23:52:00.192Z,51.50
2018-03-31T23:54:29.520Z,50.87
2018-03-31T23:56:58.115Z,52.83
2018-03-31T23:59:26.648Z,48.43
